sensor_id;sensor_type;location;lat;lon;timestamp;temperature;humidity
28773;DHT22;15925;51.222;5.678;2023-04-07T00:01:30;9.50;99.90
28773;DHT22;15925;51.222;5.678;2023-04-07T00:03:57;9.50;99.90
28773;DHT22;15925;51.222;5.678;2023-04-07T00:06:22;9.50;99.90
28773;DHT22;15925;51.222;5.678;2023-04-07T00:08:48;9.50;99.90
28773;DHT22;15925;51.222;5.678;2023-04-07T00:11:14;9.50;99.90
28773;DHT22;15925;51.222;5.678;2023-04-07T00:13:40;9.50;99.90
28773;DHT22;15925;51.222;5.678;2023-04-07T00:16:06;9.50;99.90
28773;DHT22;15925;51.222;5.678;2023-04-07T00:18:31;9.50;99.90
28773;DHT22;15925;51.222;5.678;2023-04-07T00:20:57;9.50;99.90
28773;DHT22;15925;51.222;5.678;2023-04-07T00:23:23;9.40;99.90
28773;DHT22;15925;51.222;5.678;2023-04-07T00:25:49;9.40;99.90
28773;DHT22;15925;51.222;5.678;2023-04-07T00:28:15;9.40;99.90
28773;DHT22;15925;51.222;5.678;2023-04-07T00:30:41;9.40;99.90
28773;DHT22;15925;51.222;5.678;2023-04-07T00:33:06;9.30;99.90
28773;DHT22;15925;51.222;5.678;2023-04-07T00:35:32;9.30;99.90
28773;DHT22;15925;51.222;5.678;2023-04-07T00:37:58;9.30;99.90
28773;DHT22;15925;51.222;5.678;2023-04-07T00:40:24;9.30;99.90
28773;DHT22;15925;51.222;5.678;2023-04-07T00:42:50;9.30;99.90
28773;DHT22;15925;51.222;5.678;2023-04-07T00:45:16;9.20;99.90
28773;DHT22;15925;51.222;5.678;2023-04-07T00:47:42;9.20;99.90
28773;DHT22;15925;51.222;5.678;2023-04-07T00:50:08;9.20;99.90
28773;DHT22;15925;51.222;5.678;2023-04-07T00:52:35;9.20;99.90
28773;DHT22;15925;51.222;5.678;2023-04-07T00:55:01;9.20;99.90
28773;DHT22;15925;51.222;5.678;2023-04-07T00:57:26;9.10;99.90
28773;DHT22;15925;51.222;5.678;2023-04-07T00:59:54;9.20;99.90
28773;DHT22;15925;51.222;5.678;2023-04-07T01:05:22;9.10;99.90
28773;DHT22;15925;51.222;5.678;2023-04-07T01:10:52;9.00;99.90
28773;DHT22;15925;51.222;5.678;2023-04-07T01:13:29;9.00;99.90
28773;DHT22;15925;51.222;5.678;2023-04-07T01:16:10;8.90;99.90
28773;DHT22;15925;51.222;5.678;2023-04-07T01:18:43;9.00;99.90
28773;DHT22;15925;51.222;5.678;2023-04-07T01:21:17;8.90;99.90
28773;DHT22;15925;51.222;5.678;2023-04-07T01:23:48;9.00;99.90
28773;DHT22;15925;51.222;5.678;2023-04-07T01:26:19;9.00;99.90
28773;DHT22;15925;51.222;5.678;2023-04-07T01:31:33;9.00;99.90
28773;DHT22;15925;51.222;5.678;2023-04-07T01:34:02;9.00;99.90
28773;DHT22;15925;51.222;5.678;2023-04-07T01:36:30;9.00;99.90
28773;DHT22;15925;51.222;5.678;2023-04-07T01:38:58;9.00;99.90
28773;DHT22;15925;51.222;5.678;2023-04-07T01:41:25;9.00;99.90
28773;DHT22;15925;51.222;5.678;2023-04-07T01:43:52;9.00;99.90
28773;DHT22;15925;51.222;5.678;2023-04-07T01:46:19;9.00;99.90
28773;DHT22;15925;51.222;5.678;2023-04-07T01:48:46;9.00;99.90
28773;DHT22;15925;51.222;5.678;2023-04-07T01:51:13;9.00;99.90
28773;DHT22;15925;51.222;5.678;2023-04-07T01:53:42;9.10;99.90
28773;DHT22;15925;51.222;5.678;2023-04-07T01:56:08;9.00;99.90
28773;DHT22;15925;51.222;5.678;2023-04-07T01:58:36;9.10;99.90
28773;DHT22;15925;51.222;5.678;2023-04-07T02:01:04;9.00;99.90
28773;DHT22;15925;51.222;5.678;2023-04-07T02:06:11;9.00;99.90
28773;DHT22;15925;51.222;5.678;2023-04-07T02:08:45;8.90;99.90
28773;DHT22;15925;51.222;5.678;2023-04-07T02:11:15;8.90;99.90
28773;DHT22;15925;51.222;5.678;2023-04-07T02:13:43;8.90;99.90
28773;DHT22;15925;51.222;5.678;2023-04-07T02:16:12;8.90;99.90
28773;DHT22;15925;51.222;5.678;2023-04-07T02:18:40;8.90;99.90
28773;DHT22;15925;51.222;5.678;2023-04-07T02:21:06;8.90;99.90
28773;DHT22;15925;51.222;5.678;2023-04-07T02:23:36;8.90;99.90
28773;DHT22;15925;51.222;5.678;2023-04-07T02:26:02;8.90;99.90
28773;DHT22;15925;51.222;5.678;2023-04-07T02:28:28;8.90;99.90
28773;DHT22;15925;51.222;5.678;2023-04-07T02:30:54;8.90;99.90
28773;DHT22;15925;51.222;5.678;2023-04-07T02:33:19;9.00;99.90
28773;DHT22;15925;51.222;5.678;2023-04-07T02:35:45;8.90;99.90
28773;DHT22;15925;51.222;5.678;2023-04-07T02:38:11;8.90;99.90
28773;DHT22;15925;51.222;5.678;2023-04-07T02:40:37;8.90;99.90
28773;DHT22;15925;51.222;5.678;2023-04-07T02:43:03;8.90;99.90
28773;DHT22;15925;51.222;5.678;2023-04-07T02:45:30;8.90;99.90
28773;DHT22;15925;51.222;5.678;2023-04-07T02:47:56;8.90;99.90
28773;DHT22;15925;51.222;5.678;2023-04-07T02:50:21;8.90;99.90
28773;DHT22;15925;51.222;5.678;2023-04-07T02:52:48;8.80;99.90
28773;DHT22;15925;51.222;5.678;2023-04-07T02:55:14;8.90;99.90
28773;DHT22;15925;51.222;5.678;2023-04-07T02:57:40;8.90;99.90
28773;DHT22;15925;51.222;5.678;2023-04-07T03:00:14;8.90;99.90
28773;DHT22;15925;51.222;5.678;2023-04-07T03:02:58;8.90;99.90
28773;DHT22;15925;51.222;5.678;2023-04-07T03:05:24;8.90;99.90
28773;DHT22;15925;51.222;5.678;2023-04-07T03:07:50;8.90;99.90
28773;DHT22;15925;51.222;5.678;2023-04-07T03:10:16;8.80;99.90
28773;DHT22;15925;51.222;5.678;2023-04-07T03:12:42;8.80;99.90
28773;DHT22;15925;51.222;5.678;2023-04-07T03:15:09;8.90;99.90
28773;DHT22;15925;51.222;5.678;2023-04-07T03:17:36;8.90;99.90
28773;DHT22;15925;51.222;5.678;2023-04-07T03:20:02;8.90;99.90
28773;DHT22;15925;51.222;5.678;2023-04-07T03:22:30;8.80;99.90
28773;DHT22;15925;51.222;5.678;2023-04-07T03:24:55;8.80;99.90
28773;DHT22;15925;51.222;5.678;2023-04-07T03:27:23;8.90;99.90
28773;DHT22;15925;51.222;5.678;2023-04-07T03:29:51;8.80;99.90
28773;DHT22;15925;51.222;5.678;2023-04-07T03:32:17;8.80;99.90
28773;DHT22;15925;51.222;5.678;2023-04-07T03:34:43;8.80;99.90
28773;DHT22;15925;51.222;5.678;2023-04-07T03:37:09;8.80;99.90
28773;DHT22;15925;51.222;5.678;2023-04-07T03:39:36;8.80;99.90
28773;DHT22;15925;51.222;5.678;2023-04-07T03:42:08;8.80;99.90
28773;DHT22;15925;51.222;5.678;2023-04-07T03:44:34;8.80;99.90
28773;DHT22;15925;51.222;5.678;2023-04-07T03:47:00;8.80;99.90
28773;DHT22;15925;51.222;5.678;2023-04-07T03:49:28;8.70;99.90
28773;DHT22;15925;51.222;5.678;2023-04-07T03:51:56;8.70;99.90
28773;DHT22;15925;51.222;5.678;2023-04-07T03:54:23;8.70;99.90
28773;DHT22;15925;51.222;5.678;2023-04-07T03:56:49;8.70;99.90
28773;DHT22;15925;51.222;5.678;2023-04-07T03:59:19;8.80;99.90
28773;DHT22;15925;51.222;5.678;2023-04-07T04:01:57;8.70;99.90
28773;DHT22;15925;51.222;5.678;2023-04-07T04:04:23;8.70;99.90
28773;DHT22;15925;51.222;5.678;2023-04-07T04:06:50;8.70;99.90
28773;DHT22;15925;51.222;5.678;2023-04-07T04:09:22;8.70;99.90
28773;DHT22;15925;51.222;5.678;2023-04-07T04:11:48;8.80;99.90
28773;DHT22;15925;51.222;5.678;2023-04-07T04:14:15;8.70;99.90
28773;DHT22;15925;51.222;5.678;2023-04-07T04:16:46;8.70;99.90
28773;DHT22;15925;51.222;5.678;2023-04-07T04:19:37;8.80;99.90
28773;DHT22;15925;51.222;5.678;2023-04-07T04:22:12;8.70;99.90
28773;DHT22;15925;51.222;5.678;2023-04-07T04:24:47;8.80;99.90
28773;DHT22;15925;51.222;5.678;2023-04-07T04:27:13;8.80;99.90
28773;DHT22;15925;51.222;5.678;2023-04-07T04:29:40;8.90;99.90
28773;DHT22;15925;51.222;5.678;2023-04-07T04:32:11;8.80;99.90
28773;DHT22;15925;51.222;5.678;2023-04-07T04:34:38;8.80;99.90
28773;DHT22;15925;51.222;5.678;2023-04-07T04:37:07;8.80;99.90
28773;DHT22;15925;51.222;5.678;2023-04-07T04:39:33;8.80;99.90
28773;DHT22;15925;51.222;5.678;2023-04-07T04:41:59;8.80;99.90
28773;DHT22;15925;51.222;5.678;2023-04-07T04:44:31;8.80;99.90
28773;DHT22;15925;51.222;5.678;2023-04-07T04:46:59;8.70;99.90
28773;DHT22;15925;51.222;5.678;2023-04-07T04:49:25;8.60;99.90
28773;DHT22;15925;51.222;5.678;2023-04-07T04:51:51;8.60;99.90
28773;DHT22;15925;51.222;5.678;2023-04-07T04:54:18;8.60;99.90
28773;DHT22;15925;51.222;5.678;2023-04-07T04:56:44;8.60;99.90
28773;DHT22;15925;51.222;5.678;2023-04-07T04:59:10;8.50;99.90
28773;DHT22;15925;51.222;5.678;2023-04-07T05:01:52;8.50;99.90
28773;DHT22;15925;51.222;5.678;2023-04-07T05:04:18;8.50;99.90
28773;DHT22;15925;51.222;5.678;2023-04-07T05:06:51;8.40;99.90
28773;DHT22;15925;51.222;5.678;2023-04-07T05:09:20;8.40;99.90
28773;DHT22;15925;51.222;5.678;2023-04-07T05:11:47;8.40;99.90
28773;DHT22;15925;51.222;5.678;2023-04-07T05:14:14;8.40;99.90
28773;DHT22;15925;51.222;5.678;2023-04-07T05:16:45;8.40;99.90
28773;DHT22;15925;51.222;5.678;2023-04-07T05:19:17;8.40;99.90
28773;DHT22;15925;51.222;5.678;2023-04-07T05:21:43;8.40;99.90
28773;DHT22;15925;51.222;5.678;2023-04-07T05:24:09;8.50;99.90
28773;DHT22;15925;51.222;5.678;2023-04-07T05:26:36;8.50;99.90
28773;DHT22;15925;51.222;5.678;2023-04-07T05:29:03;8.50;99.90
28773;DHT22;15925;51.222;5.678;2023-04-07T05:31:29;8.60;99.90
28773;DHT22;15925;51.222;5.678;2023-04-07T05:33:58;8.50;99.90
28773;DHT22;15925;51.222;5.678;2023-04-07T05:36:28;8.60;99.90
28773;DHT22;15925;51.222;5.678;2023-04-07T05:38:56;8.60;99.90
28773;DHT22;15925;51.222;5.678;2023-04-07T05:41:22;8.50;99.90
28773;DHT22;15925;51.222;5.678;2023-04-07T05:43:48;8.50;99.90
28773;DHT22;15925;51.222;5.678;2023-04-07T05:46:15;8.50;99.90
28773;DHT22;15925;51.222;5.678;2023-04-07T05:48:50;8.50;99.90
28773;DHT22;15925;51.222;5.678;2023-04-07T05:51:16;8.50;99.90
28773;DHT22;15925;51.222;5.678;2023-04-07T05:53:43;8.50;99.90
28773;DHT22;15925;51.222;5.678;2023-04-07T05:56:09;8.50;99.90
28773;DHT22;15925;51.222;5.678;2023-04-07T05:58:43;8.50;99.90
28773;DHT22;15925;51.222;5.678;2023-04-07T06:01:10;8.50;99.90
28773;DHT22;15925;51.222;5.678;2023-04-07T06:03:35;8.50;99.90
28773;DHT22;15925;51.222;5.678;2023-04-07T06:06:17;8.50;99.90
28773;DHT22;15925;51.222;5.678;2023-04-07T06:08:44;8.50;99.90
28773;DHT22;15925;51.222;5.678;2023-04-07T06:11:11;8.40;99.90
28773;DHT22;15925;51.222;5.678;2023-04-07T06:13:37;8.30;99.90
28773;DHT22;15925;51.222;5.678;2023-04-07T06:16:03;8.30;99.90
28773;DHT22;15925;51.222;5.678;2023-04-07T06:18:29;8.20;99.90
28773;DHT22;15925;51.222;5.678;2023-04-07T06:20:55;8.20;99.90
28773;DHT22;15925;51.222;5.678;2023-04-07T06:23:21;8.20;99.90
28773;DHT22;15925;51.222;5.678;2023-04-07T06:25:47;8.20;99.90
28773;DHT22;15925;51.222;5.678;2023-04-07T06:28:16;8.20;99.90
28773;DHT22;15925;51.222;5.678;2023-04-07T06:30:43;8.20;99.90
28773;DHT22;15925;51.222;5.678;2023-04-07T06:33:11;8.20;99.90
28773;DHT22;15925;51.222;5.678;2023-04-07T06:35:38;8.30;99.90
28773;DHT22;15925;51.222;5.678;2023-04-07T06:38:05;8.20;99.90
28773;DHT22;15925;51.222;5.678;2023-04-07T06:40:32;8.20;99.90
28773;DHT22;15925;51.222;5.678;2023-04-07T06:42:57;8.20;99.90
28773;DHT22;15925;51.222;5.678;2023-04-07T06:45:43;8.20;99.90
28773;DHT22;15925;51.222;5.678;2023-04-07T06:48:10;8.30;99.90
28773;DHT22;15925;51.222;5.678;2023-04-07T06:50:36;8.30;99.90
28773;DHT22;15925;51.222;5.678;2023-04-07T06:53:05;8.30;99.90
28773;DHT22;15925;51.222;5.678;2023-04-07T06:55:31;8.30;99.90
28773;DHT22;15925;51.222;5.678;2023-04-07T06:57:57;8.40;99.90
28773;DHT22;15925;51.222;5.678;2023-04-07T07:00:23;8.30;99.90
28773;DHT22;15925;51.222;5.678;2023-04-07T07:02:49;8.30;99.90
28773;DHT22;15925;51.222;5.678;2023-04-07T07:05:15;8.50;99.90
28773;DHT22;15925;51.222;5.678;2023-04-07T07:07:41;8.50;99.90
28773;DHT22;15925;51.222;5.678;2023-04-07T07:10:08;8.50;99.90
28773;DHT22;15925;51.222;5.678;2023-04-07T07:12:35;8.50;99.90
28773;DHT22;15925;51.222;5.678;2023-04-07T07:15:01;8.60;99.90
28773;DHT22;15925;51.222;5.678;2023-04-07T07:17:26;8.60;99.90
28773;DHT22;15925;51.222;5.678;2023-04-07T07:19:52;8.60;99.90
28773;DHT22;15925;51.222;5.678;2023-04-07T07:22:18;8.70;99.90
28773;DHT22;15925;51.222;5.678;2023-04-07T07:24:44;8.70;99.90
28773;DHT22;15925;51.222;5.678;2023-04-07T07:27:09;8.70;99.90
28773;DHT22;15925;51.222;5.678;2023-04-07T07:29:35;8.70;99.90
28773;DHT22;15925;51.222;5.678;2023-04-07T07:32:01;8.80;99.90
28773;DHT22;15925;51.222;5.678;2023-04-07T07:34:27;8.80;99.90
28773;DHT22;15925;51.222;5.678;2023-04-07T07:36:53;8.90;99.90
28773;DHT22;15925;51.222;5.678;2023-04-07T07:39:19;9.00;99.90
28773;DHT22;15925;51.222;5.678;2023-04-07T07:41:44;9.10;99.90
28773;DHT22;15925;51.222;5.678;2023-04-07T07:44:11;9.10;99.90
28773;DHT22;15925;51.222;5.678;2023-04-07T07:46:37;9.10;99.90
28773;DHT22;15925;51.222;5.678;2023-04-07T07:49:02;9.20;99.90
28773;DHT22;15925;51.222;5.678;2023-04-07T07:51:30;9.20;99.90
28773;DHT22;15925;51.222;5.678;2023-04-07T07:53:56;9.10;99.90
28773;DHT22;15925;51.222;5.678;2023-04-07T07:56:21;9.20;99.90
28773;DHT22;15925;51.222;5.678;2023-04-07T07:58:48;9.20;99.90
28773;DHT22;15925;51.222;5.678;2023-04-07T08:01:14;9.10;99.90
28773;DHT22;15925;51.222;5.678;2023-04-07T08:03:40;9.10;99.90
28773;DHT22;15925;51.222;5.678;2023-04-07T08:06:05;9.10;99.90
28773;DHT22;15925;51.222;5.678;2023-04-07T08:08:34;9.10;99.90
28773;DHT22;15925;51.222;5.678;2023-04-07T08:10:59;9.10;99.90
28773;DHT22;15925;51.222;5.678;2023-04-07T08:13:25;9.10;99.90
28773;DHT22;15925;51.222;5.678;2023-04-07T08:15:51;9.20;99.90
28773;DHT22;15925;51.222;5.678;2023-04-07T08:18:17;9.20;99.90
28773;DHT22;15925;51.222;5.678;2023-04-07T08:20:43;9.20;99.90
28773;DHT22;15925;51.222;5.678;2023-04-07T08:23:08;9.30;99.90
28773;DHT22;15925;51.222;5.678;2023-04-07T08:25:34;9.40;99.90
28773;DHT22;15925;51.222;5.678;2023-04-07T08:28:00;9.40;99.90
28773;DHT22;15925;51.222;5.678;2023-04-07T08:30:26;9.50;99.90
28773;DHT22;15925;51.222;5.678;2023-04-07T08:32:52;9.50;99.90
28773;DHT22;15925;51.222;5.678;2023-04-07T08:35:18;9.60;99.90
28773;DHT22;15925;51.222;5.678;2023-04-07T08:37:43;9.60;99.90
28773;DHT22;15925;51.222;5.678;2023-04-07T08:40:10;9.60;99.90
28773;DHT22;15925;51.222;5.678;2023-04-07T08:42:40;9.60;99.90
28773;DHT22;15925;51.222;5.678;2023-04-07T08:45:07;9.70;99.90
28773;DHT22;15925;51.222;5.678;2023-04-07T08:47:35;9.70;99.90
28773;DHT22;15925;51.222;5.678;2023-04-07T08:50:09;9.70;99.90
28773;DHT22;15925;51.222;5.678;2023-04-07T08:52:49;9.70;99.90
28773;DHT22;15925;51.222;5.678;2023-04-07T08:55:15;9.70;99.90
28773;DHT22;15925;51.222;5.678;2023-04-07T08:57:41;9.70;99.90
28773;DHT22;15925;51.222;5.678;2023-04-07T09:00:08;9.70;99.90
28773;DHT22;15925;51.222;5.678;2023-04-07T09:02:39;9.70;99.90
28773;DHT22;15925;51.222;5.678;2023-04-07T09:05:07;9.70;99.90
28773;DHT22;15925;51.222;5.678;2023-04-07T09:07:37;9.70;99.90
28773;DHT22;15925;51.222;5.678;2023-04-07T09:10:05;9.70;99.90
28773;DHT22;15925;51.222;5.678;2023-04-07T09:12:32;9.70;99.90
28773;DHT22;15925;51.222;5.678;2023-04-07T09:14:58;9.80;99.90
28773;DHT22;15925;51.222;5.678;2023-04-07T09:17:25;9.80;99.90
28773;DHT22;15925;51.222;5.678;2023-04-07T09:19:56;9.80;99.90
28773;DHT22;15925;51.222;5.678;2023-04-07T09:22:39;9.70;99.90
28773;DHT22;15925;51.222;5.678;2023-04-07T09:25:10;9.70;99.90
28773;DHT22;15925;51.222;5.678;2023-04-07T09:27:38;9.70;99.90
28773;DHT22;15925;51.222;5.678;2023-04-07T09:30:13;9.80;99.90
28773;DHT22;15925;51.222;5.678;2023-04-07T09:32:40;9.80;99.90
28773;DHT22;15925;51.222;5.678;2023-04-07T09:35:07;9.80;99.90
28773;DHT22;15925;51.222;5.678;2023-04-07T09:37:33;9.90;99.90
28773;DHT22;15925;51.222;5.678;2023-04-07T09:39:58;9.90;99.90
28773;DHT22;15925;51.222;5.678;2023-04-07T09:42:26;9.90;99.90
28773;DHT22;15925;51.222;5.678;2023-04-07T09:44:55;10.00;99.90
28773;DHT22;15925;51.222;5.678;2023-04-07T09:47:25;10.00;99.90
28773;DHT22;15925;51.222;5.678;2023-04-07T09:49:54;10.00;99.90
28773;DHT22;15925;51.222;5.678;2023-04-07T09:52:51;10.00;99.90
28773;DHT22;15925;51.222;5.678;2023-04-07T09:55:21;10.10;99.90
28773;DHT22;15925;51.222;5.678;2023-04-07T09:57:50;10.00;99.90
28773;DHT22;15925;51.222;5.678;2023-04-07T10:00:16;10.10;99.90
28773;DHT22;15925;51.222;5.678;2023-04-07T10:02:42;10.20;99.90
28773;DHT22;15925;51.222;5.678;2023-04-07T10:05:09;10.20;99.90
28773;DHT22;15925;51.222;5.678;2023-04-07T10:07:35;10.10;99.90
28773;DHT22;15925;51.222;5.678;2023-04-07T10:10:02;10.20;99.90
28773;DHT22;15925;51.222;5.678;2023-04-07T10:12:30;10.20;99.90
28773;DHT22;15925;51.222;5.678;2023-04-07T10:14:57;10.20;99.90
28773;DHT22;15925;51.222;5.678;2023-04-07T10:17:25;10.20;99.90
28773;DHT22;15925;51.222;5.678;2023-04-07T10:19:53;10.20;99.90
28773;DHT22;15925;51.222;5.678;2023-04-07T10:22:21;10.20;99.90
28773;DHT22;15925;51.222;5.678;2023-04-07T10:24:53;10.20;99.90
28773;DHT22;15925;51.222;5.678;2023-04-07T10:27:33;10.20;99.90
28773;DHT22;15925;51.222;5.678;2023-04-07T10:30:00;10.20;99.90
28773;DHT22;15925;51.222;5.678;2023-04-07T10:32:28;10.20;99.90
28773;DHT22;15925;51.222;5.678;2023-04-07T10:34:55;10.10;99.90
28773;DHT22;15925;51.222;5.678;2023-04-07T10:37:23;10.00;99.90
28773;DHT22;15925;51.222;5.678;2023-04-07T10:39:51;10.00;99.90
28773;DHT22;15925;51.222;5.678;2023-04-07T10:45:03;10.00;99.90
28773;DHT22;15925;51.222;5.678;2023-04-07T10:47:32;10.00;99.90
28773;DHT22;15925;51.222;5.678;2023-04-07T10:50:18;9.90;99.90
28773;DHT22;15925;51.222;5.678;2023-04-07T10:52:45;9.90;99.90
28773;DHT22;15925;51.222;5.678;2023-04-07T10:55:31;10.00;99.90
28773;DHT22;15925;51.222;5.678;2023-04-07T11:00:38;10.00;99.90
28773;DHT22;15925;51.222;5.678;2023-04-07T11:03:11;10.10;99.90
28773;DHT22;15925;51.222;5.678;2023-04-07T11:05:40;10.10;99.90
28773;DHT22;15925;51.222;5.678;2023-04-07T11:08:06;10.20;99.90
28773;DHT22;15925;51.222;5.678;2023-04-07T11:10:35;10.30;99.90
28773;DHT22;15925;51.222;5.678;2023-04-07T11:13:07;10.30;99.90
28773;DHT22;15925;51.222;5.678;2023-04-07T11:15:35;10.40;99.90
28773;DHT22;15925;51.222;5.678;2023-04-07T11:20:46;10.50;99.90
28773;DHT22;15925;51.222;5.678;2023-04-07T11:23:13;10.50;99.90
28773;DHT22;15925;51.222;5.678;2023-04-07T11:25:41;10.60;99.90
28773;DHT22;15925;51.222;5.678;2023-04-07T11:28:09;10.70;99.90
28773;DHT22;15925;51.222;5.678;2023-04-07T11:30:36;10.70;99.90
28773;DHT22;15925;51.222;5.678;2023-04-07T11:33:02;10.70;99.90
28773;DHT22;15925;51.222;5.678;2023-04-07T11:35:29;10.80;99.90
28773;DHT22;15925;51.222;5.678;2023-04-07T11:37:59;10.90;99.90
28773;DHT22;15925;51.222;5.678;2023-04-07T11:40:36;10.90;99.90
28773;DHT22;15925;51.222;5.678;2023-04-07T11:43:14;10.90;99.90
28773;DHT22;15925;51.222;5.678;2023-04-07T11:45:40;10.90;99.90
28773;DHT22;15925;51.222;5.678;2023-04-07T11:48:25;10.90;99.90
28773;DHT22;15925;51.222;5.678;2023-04-07T11:50:51;10.90;99.90
28773;DHT22;15925;51.222;5.678;2023-04-07T11:53:36;11.00;99.90
28773;DHT22;15925;51.222;5.678;2023-04-07T11:56:10;11.00;99.90
28773;DHT22;15925;51.222;5.678;2023-04-07T11:58:51;11.10;99.90
28773;DHT22;15925;51.222;5.678;2023-04-07T12:01:17;11.10;99.90
28773;DHT22;15925;51.222;5.678;2023-04-07T12:04:03;11.00;99.90
28773;DHT22;15925;51.222;5.678;2023-04-07T12:06:30;11.00;99.90
28773;DHT22;15925;51.222;5.678;2023-04-07T12:09:00;10.90;99.90
28773;DHT22;15925;51.222;5.678;2023-04-07T12:11:27;10.90;99.90
28773;DHT22;15925;51.222;5.678;2023-04-07T12:13:53;10.90;99.90
28773;DHT22;15925;51.222;5.678;2023-04-07T12:16:22;11.00;99.90
28773;DHT22;15925;51.222;5.678;2023-04-07T12:18:48;11.10;99.90
28773;DHT22;15925;51.222;5.678;2023-04-07T12:21:14;11.20;99.90
28773;DHT22;15925;51.222;5.678;2023-04-07T12:23:40;11.20;99.90
28773;DHT22;15925;51.222;5.678;2023-04-07T12:26:06;11.30;99.90
28773;DHT22;15925;51.222;5.678;2023-04-07T12:28:33;11.30;99.90
28773;DHT22;15925;51.222;5.678;2023-04-07T12:30:59;11.40;99.90
28773;DHT22;15925;51.222;5.678;2023-04-07T12:33:25;11.50;99.90
28773;DHT22;15925;51.222;5.678;2023-04-07T12:35:51;11.50;99.90
28773;DHT22;15925;51.222;5.678;2023-04-07T12:38:16;11.50;99.90
28773;DHT22;15925;51.222;5.678;2023-04-07T12:40:42;11.50;99.90
28773;DHT22;15925;51.222;5.678;2023-04-07T12:43:08;11.50;99.90
28773;DHT22;15925;51.222;5.678;2023-04-07T12:45:34;11.50;99.90
28773;DHT22;15925;51.222;5.678;2023-04-07T12:48:00;11.50;99.90
28773;DHT22;15925;51.222;5.678;2023-04-07T12:50:26;11.40;99.90
28773;DHT22;15925;51.222;5.678;2023-04-07T12:52:52;11.40;99.90
28773;DHT22;15925;51.222;5.678;2023-04-07T12:55:19;11.30;99.90
28773;DHT22;15925;51.222;5.678;2023-04-07T12:57:45;11.30;99.90
28773;DHT22;15925;51.222;5.678;2023-04-07T13:00:12;11.30;99.90
28773;DHT22;15925;51.222;5.678;2023-04-07T13:02:41;11.20;99.90
28773;DHT22;15925;51.222;5.678;2023-04-07T13:05:07;11.10;99.90
28773;DHT22;15925;51.222;5.678;2023-04-07T13:07:32;11.00;99.90
28773;DHT22;15925;51.222;5.678;2023-04-07T13:10:01;11.00;99.90
28773;DHT22;15925;51.222;5.678;2023-04-07T13:12:27;10.90;99.90
28773;DHT22;15925;51.222;5.678;2023-04-07T13:14:53;11.00;99.90
28773;DHT22;15925;51.222;5.678;2023-04-07T13:17:19;11.00;99.90
28773;DHT22;15925;51.222;5.678;2023-04-07T13:19:44;10.90;99.90
28773;DHT22;15925;51.222;5.678;2023-04-07T13:22:13;10.90;99.90
28773;DHT22;15925;51.222;5.678;2023-04-07T13:24:39;10.90;99.90
28773;DHT22;15925;51.222;5.678;2023-04-07T13:27:05;10.90;99.90
28773;DHT22;15925;51.222;5.678;2023-04-07T13:29:31;10.90;99.90
28773;DHT22;15925;51.222;5.678;2023-04-07T13:32:07;10.80;99.90
28773;DHT22;15925;51.222;5.678;2023-04-07T13:34:34;10.90;99.90
28773;DHT22;15925;51.222;5.678;2023-04-07T13:37:03;10.80;99.90
28773;DHT22;15925;51.222;5.678;2023-04-07T13:39:30;10.80;99.90
28773;DHT22;15925;51.222;5.678;2023-04-07T13:41:56;10.90;99.90
28773;DHT22;15925;51.222;5.678;2023-04-07T13:44:23;10.80;99.90
28773;DHT22;15925;51.222;5.678;2023-04-07T13:46:48;10.80;99.90
28773;DHT22;15925;51.222;5.678;2023-04-07T13:49:14;10.80;99.90
28773;DHT22;15925;51.222;5.678;2023-04-07T13:51:40;10.90;99.90
28773;DHT22;15925;51.222;5.678;2023-04-07T13:54:07;10.80;99.90
28773;DHT22;15925;51.222;5.678;2023-04-07T13:56:33;10.70;99.90
28773;DHT22;15925;51.222;5.678;2023-04-07T13:59:00;10.70;99.90
28773;DHT22;15925;51.222;5.678;2023-04-07T14:01:26;10.70;99.90
28773;DHT22;15925;51.222;5.678;2023-04-07T14:03:53;10.70;99.90
28773;DHT22;15925;51.222;5.678;2023-04-07T14:06:19;10.70;99.90
28773;DHT22;15925;51.222;5.678;2023-04-07T14:08:48;10.70;99.90
28773;DHT22;15925;51.222;5.678;2023-04-07T14:11:20;10.80;99.90
28773;DHT22;15925;51.222;5.678;2023-04-07T14:13:47;10.80;99.90
28773;DHT22;15925;51.222;5.678;2023-04-07T14:16:14;10.80;99.90
28773;DHT22;15925;51.222;5.678;2023-04-07T14:18:39;10.90;99.90
28773;DHT22;15925;51.222;5.678;2023-04-07T14:21:05;10.80;99.90
28773;DHT22;15925;51.222;5.678;2023-04-07T14:23:31;10.80;99.90
28773;DHT22;15925;51.222;5.678;2023-04-07T14:25:57;10.90;99.90
28773;DHT22;15925;51.222;5.678;2023-04-07T14:28:23;10.90;99.90
28773;DHT22;15925;51.222;5.678;2023-04-07T14:30:49;11.00;99.90
28773;DHT22;15925;51.222;5.678;2023-04-07T14:33:16;11.00;99.90
28773;DHT22;15925;51.222;5.678;2023-04-07T14:35:42;11.00;99.90
28773;DHT22;15925;51.222;5.678;2023-04-07T14:38:08;11.00;99.90
28773;DHT22;15925;51.222;5.678;2023-04-07T14:40:34;10.90;99.90
28773;DHT22;15925;51.222;5.678;2023-04-07T14:43:03;10.90;99.90
28773;DHT22;15925;51.222;5.678;2023-04-07T14:45:31;10.90;99.90
28773;DHT22;15925;51.222;5.678;2023-04-07T14:47:57;10.90;99.90
28773;DHT22;15925;51.222;5.678;2023-04-07T14:50:23;10.90;99.90
28773;DHT22;15925;51.222;5.678;2023-04-07T14:52:49;10.90;99.90
28773;DHT22;15925;51.222;5.678;2023-04-07T14:55:14;10.90;99.90
28773;DHT22;15925;51.222;5.678;2023-04-07T14:57:40;10.90;99.90
28773;DHT22;15925;51.222;5.678;2023-04-07T15:00:07;10.80;99.90
28773;DHT22;15925;51.222;5.678;2023-04-07T15:02:34;10.80;99.90
28773;DHT22;15925;51.222;5.678;2023-04-07T15:05:00;10.80;99.90
28773;DHT22;15925;51.222;5.678;2023-04-07T15:07:25;10.70;99.90
28773;DHT22;15925;51.222;5.678;2023-04-07T15:09:51;10.70;99.90
28773;DHT22;15925;51.222;5.678;2023-04-07T15:12:17;10.70;99.90
28773;DHT22;15925;51.222;5.678;2023-04-07T15:14:44;10.70;99.90
28773;DHT22;15925;51.222;5.678;2023-04-07T15:17:11;10.70;99.90
28773;DHT22;15925;51.222;5.678;2023-04-07T15:19:37;10.70;99.90
28773;DHT22;15925;51.222;5.678;2023-04-07T15:22:03;10.70;99.90
28773;DHT22;15925;51.222;5.678;2023-04-07T15:24:28;10.70;99.90
28773;DHT22;15925;51.222;5.678;2023-04-07T15:26:54;10.80;99.90
28773;DHT22;15925;51.222;5.678;2023-04-07T15:29:20;10.70;99.90
28773;DHT22;15925;51.222;5.678;2023-04-07T15:31:46;10.70;99.90
28773;DHT22;15925;51.222;5.678;2023-04-07T15:34:12;10.70;99.90
28773;DHT22;15925;51.222;5.678;2023-04-07T15:36:38;10.70;99.90
28773;DHT22;15925;51.222;5.678;2023-04-07T15:39:04;10.70;99.90
28773;DHT22;15925;51.222;5.678;2023-04-07T15:41:31;10.70;99.90
28773;DHT22;15925;51.222;5.678;2023-04-07T15:43:58;10.70;99.90
28773;DHT22;15925;51.222;5.678;2023-04-07T15:46:25;10.70;99.90
28773;DHT22;15925;51.222;5.678;2023-04-07T15:48:53;10.70;99.90
28773;DHT22;15925;51.222;5.678;2023-04-07T15:51:19;10.80;99.90
28773;DHT22;15925;51.222;5.678;2023-04-07T15:53:45;10.80;99.90
28773;DHT22;15925;51.222;5.678;2023-04-07T15:56:11;10.70;99.90
28773;DHT22;15925;51.222;5.678;2023-04-07T15:58:37;10.70;99.90
28773;DHT22;15925;51.222;5.678;2023-04-07T16:01:03;10.70;99.90
28773;DHT22;15925;51.222;5.678;2023-04-07T16:03:29;10.70;99.90